Time;durP1;ratioP1;P1;durP2;ratioP2;P2;SDS_P1;SDS_P2;PMS_P1;PMS_P2;Temp;Humidity;BMP_temperature;BMP_pressure;BME280_temperature;BME280_humidity;BME280_pressure;Samples;Min_cycle;Max_cycle;Signal;HPM_P1;HPM_P2
2023/08/30 00:02:13;;;;;;;34.95;14.40;;;;;;;12.23;100.00;96790.28;5090605;28;20798;-77
2023/08/30 00:04:41;;;;;;;32.37;13.20;;;;;;;12.23;100.00;96783.13;5090768;28;20499;-76
2023/08/30 00:07:10;;;;;;;33.50;13.93;;;;;;;12.25;100.00;96781.00;5072371;28;20440;-76
2023/08/30 00:09:36;;;;;;;30.48;12.98;;;;;;;12.25;100.00;96778.34;5078527;28;20453;-76
2023/08/30 00:12:03;;;;;;;40.20;14.75;;;;;;;12.27;100.00;96780.69;5077714;28;20984;-76
2023/08/30 00:14:30;;;;;;;31.38;13.75;;;;;;;12.28;100.00;96776.97;5090399;28;20417;-77
2023/08/30 00:16:56;;;;;;;35.40;13.68;;;;;;;12.28;100.00;96780.44;5090678;28;20398;-76
2023/08/30 00:19:23;;;;;;;31.27;13.13;;;;;;;12.29;100.00;96781.22;5062278;28;20439;-76
2023/08/30 00:21:49;;;;;;;38.25;14.80;;;;;;;12.28;100.00;96779.63;5069938;28;20396;-76
2023/08/30 00:24:16;;;;;;;37.78;14.02;;;;;;;12.27;100.00;96772.75;5070249;28;20830;-76
2023/08/30 00:26:43;;;;;;;50.05;18.60;;;;;;;12.28;100.00;96772.47;5070267;28;20411;-76
2023/08/30 00:29:09;;;;;;;40.85;17.63;;;;;;;12.28;100.00;96769.03;5052477;28;20427;-76
2023/08/30 00:31:35;;;;;;;42.03;16.40;;;;;;;12.30;100.00;96766.88;5069904;28;20885;-77
2023/08/30 00:34:01;;;;;;;35.15;14.63;;;;;;;12.30;100.00;96777.50;5077386;28;20451;-77
2023/08/30 00:36:27;;;;;;;32.80;13.48;;;;;;;12.30;100.00;96773.00;5053023;28;20491;-77
2023/08/30 00:38:54;;;;;;;32.95;13.35;;;;;;;12.31;100.00;96765.81;5070137;28;20406;-76
2023/08/30 00:41:21;;;;;;;30.25;12.57;;;;;;;12.32;100.00;96765.56;5071256;28;20904;-76
2023/08/30 00:43:47;;;;;;;32.05;13.27;;;;;;;12.32;100.00;96756.78;5090196;28;20416;-76
2023/08/30 00:46:15;;;;;;;32.25;12.55;;;;;;;12.31;100.00;96758.66;5089531;28;20761;-76
2023/08/30 00:48:42;;;;;;;28.10;12.10;;;;;;;12.29;100.00;96744.88;5070154;28;20392;-76
2023/08/30 00:51:08;;;;;;;30.75;12.50;;;;;;;12.29;100.00;96744.06;5069783;28;20427;-76
2023/08/30 00:53:34;;;;;;;26.95;11.70;;;;;;;12.28;100.00;96743.28;5069968;28;20503;-76
2023/08/30 00:56:01;;;;;;;26.27;11.68;;;;;;;12.29;100.00;96744.06;5069808;28;20403;-76
2023/08/30 00:58:30;;;;;;;35.83;13.43;;;;;;;12.28;100.00;96750.44;5080863;28;20401;-76
2023/08/30 01:00:57;;;;;;;49.03;17.47;;;;;;;12.26;100.00;96741.97;5090314;28;20406;-77
2023/08/30 01:03:23;;;;;;;36.08;14.60;;;;;;;12.25;100.00;96743.84;5079898;28;20423;-77
2023/08/30 01:05:49;;;;;;;36.88;13.70;;;;;;;12.24;100.00;96744.13;5075613;28;20947;-77
2023/08/30 01:08:16;;;;;;;33.85;13.30;;;;;;;12.22;100.00;96731.13;5090293;28;20398;-77
2023/08/30 01:10:53;;;;;;;31.85;13.32;;;;;;;12.21;100.00;96732.19;5090329;28;20406;-77
2023/08/30 01:13:20;;;;;;;29.63;12.48;;;;;;;12.21;100.00;96734.84;5090025;28;20447;-77
2023/08/30 01:15:51;;;;;;;28.95;11.98;;;;;;;12.20;100.00;96732.47;5090339;28;20398;-77
2023/08/30 01:18:20;;;;;;;29.93;11.83;;;;;;;12.18;100.00;96724.78;5089401;28;20485;-77
2023/08/30 01:20:48;;;;;;;32.65;13.00;;;;;;;12.15;100.00;96728.00;5069888;28;20918;-77
2023/08/30 01:23:24;;;;;;;34.67;14.10;;;;;;;12.13;100.00;96716.06;5069834;28;20923;-77
2023/08/30 01:25:57;;;;;;;37.58;14.65;;;;;;;12.10;100.00;96721.94;5069871;28;20396;-77
2023/08/30 01:28:26;;;;;;;36.72;14.20;;;;;;;12.09;100.00;96720.34;5052016;28;20410;-76
2023/08/30 01:30:54;;;;;;;32.70;13.40;;;;;;;12.08;100.00;96732.03;5069862;28;20403;-77
2023/08/30 01:33:22;;;;;;;38.25;14.73;;;;;;;12.04;100.00;96723.81;5073057;28;20409;-77
2023/08/30 01:35:51;;;;;;;35.05;14.48;;;;;;;12.03;100.00;96730.19;5093743;28;20807;-77
2023/08/30 01:38:18;;;;;;;44.20;17.60;;;;;;;12.01;100.00;96719.06;5093888;28;20915;-77
2023/08/30 01:40:45;;;;;;;49.45;19.27;;;;;;;12.01;100.00;96727.03;5093816;28;20774;-77
2023/08/30 01:43:12;;;;;;;47.83;18.52;;;;;;;12.00;100.00;96728.88;5093741;28;20509;-77
2023/08/30 01:45:43;;;;;;;46.83;18.70;;;;;;;11.99;100.00;96727.31;5093999;28;20464;-77
2023/08/30 01:48:12;;;;;;;54.05;21.33;;;;;;;11.99;100.00;96726.50;5094127;28;20445;-77
2023/08/30 01:50:40;;;;;;;66.88;24.52;;;;;;;11.99;100.00;96729.16;5080815;28;20434;-77
2023/08/30 01:53:07;;;;;;;67.90;23.75;;;;;;;11.99;100.00;96731.81;5073257;28;20423;-77
2023/08/30 01:55:35;;;;;;;62.35;23.35;;;;;;;11.98;100.00;96733.66;5076598;28;20447;-77
2023/08/30 01:58:03;;;;;;;56.28;22.13;;;;;;;12.00;100.00;96736.06;5093795;28;20489;-77
2023/08/30 02:00:30;;;;;;;57.17;22.48;;;;;;;12.00;100.00;96738.72;5092874;28;20406;-77
2023/08/30 02:02:57;;;;;;;53.20;20.85;;;;;;;11.99;100.00;96737.13;5093247;28;20477;-77
2023/08/30 02:05:23;;;;;;;62.08;24.10;;;;;;;11.99;100.00;96734.47;5093565;28;20472;-77
2023/08/30 02:07:56;;;;;;;70.40;26.73;;;;;;;11.98;100.00;96741.63;5093925;28;20406;-77
2023/08/30 02:10:27;;;;;;;73.93;26.70;;;;;;;11.97;100.00;96736.59;5074605;28;20403;-77
2023/08/30 02:12:57;;;;;;;70.63;25.67;;;;;;;11.96;100.00;96737.66;5072752;28;20395;-76
2023/08/30 02:15:25;;;;;;;77.22;26.90;;;;;;;11.93;100.00;96733.72;5073023;28;20392;-77
2023/08/30 02:17:52;;;;;;;57.50;21.70;;;;;;;11.91;100.00;96745.66;5073092;28;20885;-78
2023/08/30 02:20:20;;;;;;;46.33;17.85;;;;;;;11.89;100.00;96740.63;5074192;28;20403;-76
2023/08/30 02:22:46;;;;;;;43.33;16.80;;;;;;;11.86;100.00;96740.41;5092172;28;20402;-76
2023/08/30 02:25:12;;;;;;;39.90;15.63;;;;;;;11.83;100.00;96736.41;5092389;28;20405;-77
2023/08/30 02:27:39;;;;;;;36.03;14.73;;;;;;;11.80;100.00;96739.59;5090573;28;20907;-76
2023/08/30 02:30:06;;;;;;;36.05;12.95;;;;;;;11.77;100.00;96742.03;5085057;28;20404;-77
2023/08/30 02:32:33;;;;;;;34.15;13.75;;;;;;;11.73;100.00;96736.44;5072507;28;20403;-77
2023/08/30 02:34:59;;;;;;;32.45;13.27;;;;;;;11.71;100.00;96740.44;5072908;28;20453;-77
2023/08/30 02:37:27;;;;;;;31.33;12.13;;;;;;;11.68;100.00;96738.34;5075590;28;20800;-77
2023/08/30 02:39:53;;;;;;;29.65;12.43;;;;;;;11.63;100.00;96732.00;5093329;28;20394;-77
2023/08/30 02:42:19;;;;;;;31.33;12.25;;;;;;;11.62;100.00;96745.53;5092404;28;20953;-77
2023/08/30 02:44:45;;;;;;;30.15;12.40;;;;;;;11.60;100.00;96747.66;5091727;28;20418;-77
2023/08/30 02:47:12;;;;;;;38.05;14.75;;;;;;;11.56;100.00;96750.06;5076054;28;20404;-77
2023/08/30 02:49:38;;;;;;;31.38;12.80;;;;;;;11.52;100.00;96743.72;5054659;28;20407;-77
2023/08/30 02:52:06;;;;;;;46.85;15.85;;;;;;;11.48;100.00;96753.28;5072471;28;20411;-77
2023/08/30 02:54:33;;;;;;;40.25;15.05;;;;;;;11.45;100.00;96739.75;5054758;28;20408;-77
2023/08/30 02:56:59;;;;;;;54.60;19.52;;;;;;;11.42;100.00;96740.31;5087910;28;20759;-78
2023/08/30 02:59:26;;;;;;;42.53;16.63;;;;;;;11.39;100.00;96739.00;5073937;28;20403;-77
2023/08/30 03:01:52;;;;;;;57.63;19.52;;;;;;;11.37;100.00;96742.97;5086697;28;20394;-78
2023/08/30 03:04:18;;;;;;;45.57;17.97;;;;;;;11.33;100.00;96742.75;5092872;28;20767;-77
2023/08/30 03:06:44;;;;;;;49.05;18.05;;;;;;;11.31;100.00;96744.06;5092697;28;20406;-77
2023/08/30 03:09:11;;;;;;;39.63;15.85;;;;;;;11.29;100.00;96736.38;5091917;28;20871;-77
2023/08/30 03:11:39;;;;;;;34.47;15.05;;;;;;;11.29;100.00;96733.72;5091112;28;20394;-77
2023/08/30 03:14:05;;;;;;;36.83;14.25;;;;;;;11.29;100.00;96738.25;5083684;28;20392;-77
2023/08/30 03:16:31;;;;;;;35.33;14.57;;;;;;;11.29;100.00;96735.59;5071016;28;20404;-77
2023/08/30 03:18:58;;;;;;;36.07;13.77;;;;;;;11.30;100.00;96721.28;5053221;28;20402;-77
2023/08/30 03:21:24;;;;;;;31.92;13.25;;;;;;;11.32;100.00;96730.56;5070728;28;20407;-77
2023/08/30 03:23:50;;;;;;;43.30;16.33;;;;;;;11.33;100.00;96726.06;5076582;28;20459;-77
2023/08/30 03:26:17;;;;;;;39.45;15.13;;;;;;;11.35;100.00;96718.63;5091195;28;20806;-77
2023/08/30 03:28:45;;;;;;;37.03;15.30;;;;;;;11.35;100.00;96713.34;5073589;28;20510;-77
2023/08/30 03:31:13;;;;;;;43.05;16.48;;;;;;;11.36;100.00;96713.03;5092582;28;20409;-78
2023/08/30 03:33:41;;;;;;;42.60;16.75;;;;;;;11.35;100.00;96719.41;5080846;28;20406;-77
2023/08/30 03:36:09;;;;;;;41.15;16.60;;;;;;;11.36;100.00;96714.88;5072464;28;20404;-78
2023/08/30 03:38:35;;;;;;;35.53;14.07;;;;;;;11.37;100.00;96714.63;5072296;28;20400;-78
2023/08/30 03:41:02;;;;;;;34.30;13.40;;;;;;;11.39;100.00;96714.34;5076608;28;20774;-78
2023/08/30 03:43:28;;;;;;;32.95;13.68;;;;;;;11.41;100.00;96712.25;5079485;28;20893;-77
2023/08/30 03:45:56;;;;;;;33.78;13.73;;;;;;;11.42;100.00;96716.47;5080416;28;20480;-77
2023/08/30 03:48:22;;;;;;;39.03;14.77;;;;;;;11.43;100.00;96716.19;5081255;28;20409;-77
2023/08/30 03:50:49;;;;;;;50.07;18.00;;;;;;;11.44;100.00;96719.63;5079252;28;20832;-77
2023/08/30 03:53:15;;;;;;;42.95;16.52;;;;;;;11.44;100.00;96717.78;5080209;28;20401;-77
2023/08/30 03:55:41;;;;;;;46.50;18.33;;;;;;;11.45;100.00;96718.56;5080662;28;20910;-77
2023/08/30 03:58:07;;;;;;;47.50;17.73;;;;;;;11.45;100.00;96718.56;5079198;28;20431;-77
2023/08/30 04:00:37;;;;;;;37.92;16.30;;;;;;;11.44;100.00;96720.41;5072407;28;20403;-78
2023/08/30 04:03:06;;;;;;;46.50;16.93;;;;;;;11.45;100.00;96721.22;5080434;28;20500;-77
2023/08/30 04:05:33;;;;;;;39.77;15.33;;;;;;;11.46;100.00;96722.81;5090418;28;20497;-77
2023/08/30 04:08:00;;;;;;;37.03;14.27;;;;;;;11.45;100.00;96721.22;5090571;28;20854;-77
2023/08/30 04:10:26;;;;;;;33.13;13.23;;;;;;;11.47;100.00;96725.19;5091344;28;20393;-79
2023/08/30 04:12:53;;;;;;;33.00;13.40;;;;;;;11.49;100.00;96728.38;5092716;28;20432;-78
2023/08/30 04:15:19;;;;;;;46.20;16.90;;;;;;;11.48;100.00;96728.63;5092223;28;20469;-78
2023/08/30 04:17:46;;;;;;;34.38;14.18;;;;;;;11.49;100.00;96724.94;5091348;28;20429;-78
2023/08/30 04:20:15;;;;;;;48.72;17.40;;;;;;;11.50;100.00;96734.47;5091476;28;20413;-78
2023/08/30 04:22:41;;;;;;;49.83;18.55;;;;;;;11.49;100.00;96727.56;5090335;28;20406;-77
2023/08/30 04:25:09;;;;;;;39.45;15.30;;;;;;;11.50;100.00;96729.16;5090372;28;20414;-77
2023/08/30 04:27:35;;;;;;;45.28;16.92;;;;;;;11.50;100.00;96726.50;5070457;28;20404;-77
2023/08/30 04:30:02;;;;;;;43.08;16.83;;;;;;;11.51;100.00;96725.41;5070219;28;20407;-77
2023/08/30 04:32:28;;;;;;;41.25;15.98;;;;;;;11.52;100.00;96733.09;5069954;28;20415;-77
2023/08/30 04:34:54;;;;;;;43.78;17.23;;;;;;;11.53;100.00;96731.25;5076413;28;20398;-77
2023/08/30 04:37:22;;;;;;;58.83;20.90;;;;;;;11.55;100.00;96739.72;5090353;28;20884;-77
2023/08/30 04:39:48;;;;;;;70.63;24.53;;;;;;;11.54;100.00;96730.97;5090708;28;20486;-78
2023/08/30 04:42:15;;;;;;;75.30;25.83;;;;;;;11.56;100.00;96736.81;5092179;28;20422;-78
2023/08/30 04:44:41;;;;;;;76.22;26.02;;;;;;;11.59;100.00;96743.41;5091907;28;20887;-78
2023/08/30 04:47:08;;;;;;;106.90;34.15;;;;;;;11.57;100.00;96734.97;5092148;28;20405;-79
2023/08/30 04:49:34;;;;;;;141.20;39.45;;;;;;;11.57;100.00;96741.06;5092721;28;20756;-78
2023/08/30 04:52:01;;;;;;;128.55;39.08;;;;;;;11.59;100.00;96738.91;5091630;28;20401;-78
2023/08/30 04:54:28;;;;;;;123.35;39.28;;;;;;;11.60;100.00;96727.22;5075295;28;20396;-78
2023/08/30 04:56:55;;;;;;;119.88;37.38;;;;;;;11.63;100.00;96728.56;5077393;28;20396;-78
2023/08/30 04:59:21;;;;;;;107.90;33.17;;;;;;;11.64;100.00;96728.28;5073764;28;20407;-78
2023/08/30 05:01:47;;;;;;;99.00;30.33;;;;;;;11.66;100.00;96730.66;5078193;28;20509;-78
2023/08/30 05:04:14;;;;;;;80.45;28.17;;;;;;;11.69;100.00;96730.09;5071091;28;20427;-77
2023/08/30 05:06:40;;;;;;;90.03;30.00;;;;;;;11.69;100.00;96719.50;5088297;28;20390;-77
2023/08/30 05:09:06;;;;;;;78.10;26.90;;;;;;;11.72;100.00;96723.47;5093341;28;20864;-77
2023/08/30 05:11:34;;;;;;;69.13;23.05;;;;;;;11.72;100.00;96721.63;5082377;28;20399;-77
2023/08/30 05:14:00;;;;;;;51.70;19.58;;;;;;;11.75;100.00;96723.75;5079059;28;20432;-77
2023/08/30 05:16:26;;;;;;;44.88;17.77;;;;;;;11.77;100.00;96724.25;5090847;28;20398;-77
2023/08/30 05:18:52;;;;;;;65.00;22.27;;;;;;;11.80;100.00;96722.94;5090729;28;20899;-77
2023/08/30 05:21:18;;;;;;;59.22;20.23;;;;;;;11.81;100.00;96717.34;5090741;28;20484;-78
2023/08/30 05:23:46;;;;;;;54.90;19.13;;;;;;;11.85;100.00;96728.19;5061074;28;20777;-79
2023/08/30 05:26:12;;;;;;;45.55;16.83;;;;;;;11.87;100.00;96720.75;5081420;28;20428;-79
2023/08/30 05:28:40;;;;;;;49.65;17.88;;;;;;;11.88;100.00;96719.66;5097041;28;20875;-79
2023/08/30 05:31:06;;;;;;;42.77;15.70;;;;;;;11.91;100.00;96729.75;5069461;28;20407;-78
2023/08/30 05:33:32;;;;;;;34.85;13.10;;;;;;;11.94;100.00;96724.69;5089426;28;20402;-78
2023/08/30 05:35:59;;;;;;;33.17;12.70;;;;;;;11.96;100.00;96724.41;5079924;28;20417;-77
2023/08/30 05:38:25;;;;;;;29.83;12.13;;;;;;;11.98;100.00;96727.56;5087068;28;20457;-78
2023/08/30 05:40:51;;;;;;;28.33;11.75;;;;;;;12.00;100.00;96728.09;5082265;28;20395;-78
2023/08/30 05:43:18;;;;;;;26.90;10.75;;;;;;;12.03;100.00;96720.38;5087757;28;20759;-78
2023/08/30 05:45:45;;;;;;;24.30;9.70;;;;;;;12.06;100.00;96720.88;5087649;28;20399;-78
2023/08/30 05:48:12;;;;;;;23.90;10.05;;;;;;;12.07;100.00;96723.28;5093084;28;20911;-78
2023/08/30 05:50:38;;;;;;;24.90;9.73;;;;;;;12.09;100.00;96715.84;5086385;28;20468;-78
2023/08/30 05:53:04;;;;;;;23.80;10.30;;;;;;;12.12;100.00;96717.13;5074508;28;20903;-78
2023/08/30 05:55:30;;;;;;;25.35;10.45;;;;;;;12.14;100.00;96722.97;5091942;28;20414;-78
2023/08/30 05:57:57;;;;;;;23.57;10.07;;;;;;;12.18;100.00;96722.13;5079992;28;20781;-77
2023/08/30 06:00:25;;;;;;;23.13;10.38;;;;;;;12.21;100.00;96728.75;5088028;28;20394;-80
2023/08/30 06:02:53;;;;;;;23.50;10.02;;;;;;;12.25;100.00;96725.28;5078239;28;20402;-78
2023/08/30 06:05:19;;;;;;;22.52;9.63;;;;;;;12.28;100.00;96716.75;5084732;28;20449;-78
2023/08/30 06:07:45;;;;;;;21.25;9.35;;;;;;;12.31;100.00;96728.66;5085512;28;20404;-78
2023/08/30 06:10:12;;;;;;;26.65;10.38;;;;;;;12.35;100.00;96721.72;5081527;28;20407;-78
2023/08/30 06:12:38;;;;;;;23.85;9.82;;;;;;;12.38;100.00;96727.28;5090736;28;20404;-78
2023/08/30 06:15:05;;;;;;;23.05;9.95;;;;;;;12.41;100.00;96725.91;5081531;28;20398;-78
2023/08/30 06:17:31;;;;;;;22.40;9.30;;;;;;;12.47;100.00;96729.34;5091143;28;20483;-78
2023/08/30 06:19:59;;;;;;;19.65;8.63;;;;;;;12.51;100.00;96733.81;5088744;28;20633;-78
2023/08/30 06:22:25;;;;;;;19.63;8.63;;;;;;;12.55;100.00;96734.03;5093957;28;20393;-78
2023/08/30 06:24:52;;;;;;;39.70;14.50;;;;;;;12.56;100.00;96736.41;5094230;28;20425;-78
2023/08/30 06:27:18;;;;;;;28.63;12.30;;;;;;;12.57;100.00;96730.03;5091072;28;20413;-77
2023/08/30 06:29:44;;;;;;;35.63;14.50;;;;;;;12.56;100.00;96728.44;5066166;28;20408;-77
2023/08/30 06:32:11;;;;;;;31.33;13.43;;;;;;;12.58;100.00;96723.66;5066903;28;20403;-77
2023/08/30 06:34:37;;;;;;;38.78;15.98;;;;;;;12.58;100.00;96728.16;5082340;28;20461;-78
2023/08/30 06:37:05;;;;;;;33.65;14.55;;;;;;;12.59;100.00;96729.75;5088562;28;20409;-78
2023/08/30 06:39:35;;;;;;;28.13;13.43;;;;;;;12.62;100.00;96731.84;5094061;28;20402;-78
2023/08/30 06:42:01;;;;;;;54.47;20.55;;;;;;;12.62;100.00;96731.84;5093191;28;20398;-78
2023/08/30 06:44:29;;;;;;;47.40;18.70;;;;;;;12.62;100.00;96727.34;5093391;28;20471;-78
2023/08/30 06:46:55;;;;;;;38.13;17.13;;;;;;;12.63;100.00;96731.56;5095599;28;20455;-78
2023/08/30 06:49:22;;;;;;;36.25;16.98;;;;;;;12.64;100.00;96727.84;5094137;28;20402;-78
2023/08/30 06:51:48;;;;;;;69.40;22.77;;;;;;;12.60;100.00;96728.69;5080007;28;20874;-78
2023/08/30 06:54:16;;;;;;;61.60;23.83;;;;;;;12.57;100.00;96722.06;5086459;28;20739;-78
2023/08/30 06:56:58;;;;;;;67.93;25.73;;;;;;;12.54;100.00;96727.94;5095610;28;20806;-78
2023/08/30 06:59:24;;;;;;;67.43;25.30;;;;;;;12.56;100.00;96731.09;5079015;28;20509;-78
2023/08/30 07:01:50;;;;;;;64.03;25.48;;;;;;;12.56;100.00;96720.47;5080360;28;20407;-78
2023/08/30 07:04:16;;;;;;;49.85;20.10;;;;;;;12.60;100.00;96726.03;5091495;28;20406;-77
2023/08/30 07:06:42;;;;;;;52.15;20.33;;;;;;;12.61;100.00;96725.75;5093902;28;20454;-77
2023/08/30 07:09:09;;;;;;;60.35;21.88;;;;;;;12.62;100.00;96718.59;5093704;28;20436;-77
2023/08/30 07:11:37;;;;;;;66.18;24.10;;;;;;;12.56;100.00;96723.13;5089482;28;20419;-77
2023/08/30 07:14:03;;;;;;;50.97;20.05;;;;;;;12.60;100.00;96732.13;5079991;28;20400;-77
2023/08/30 07:16:31;;;;;;;45.42;18.67;;;;;;;12.62;100.00;96718.59;5073291;28;20877;-78
2023/08/30 07:18:58;;;;;;;35.53;14.80;;;;;;;12.67;100.00;96723.84;5087629;28;20394;-77
2023/08/30 07:21:24;;;;;;;48.65;18.20;;;;;;;12.67;100.00;96724.63;5084009;28;20872;-77
2023/08/30 07:23:50;;;;;;;36.00;15.55;;;;;;;12.70;100.00;96726.75;5093733;28;20417;-77
2023/08/30 07:26:17;;;;;;;32.37;12.93;;;;;;;12.74;100.00;96721.66;5084576;28;20396;-77
2023/08/30 07:28:45;;;;;;;28.00;11.85;;;;;;;12.78;100.00;96725.31;5075493;28;20417;-78
2023/08/30 07:31:15;;;;;;;20.03;9.23;;;;;;;12.84;100.00;96721.56;5092060;28;20468;-77
2023/08/30 07:33:41;;;;;;;18.50;9.50;;;;;;;12.88;100.00;96725.22;5081529;28;20748;-77
2023/08/30 07:36:08;;;;;;;21.13;9.60;;;;;;;12.93;100.00;96719.84;5081046;28;20405;-77
2023/08/30 07:38:34;;;;;;;23.30;11.40;;;;;;;12.96;100.00;96721.94;5092982;28;20488;-77
2023/08/30 07:41:01;;;;;;;24.08;11.85;;;;;;;12.97;100.00;96728.84;5077237;28;20835;-77
2023/08/30 07:43:27;;;;;;;27.05;12.40;;;;;;;13.01;100.00;96726.41;5072346;28;20923;-77
2023/08/30 07:45:56;;;;;;;25.85;12.80;;;;;;;13.04;100.00;96720.53;5060703;28;20398;-77
2023/08/30 07:48:22;;;;;;;28.15;12.88;;;;;;;13.07;100.00;96730.59;5092881;28;20864;-77
2023/08/30 07:50:48;;;;;;;28.60;13.87;;;;;;;13.10;100.00;96730.81;5060889;28;20828;-77
2023/08/30 07:53:15;;;;;;;27.02;12.35;;;;;;;13.14;100.00;96736.41;5072649;28;20436;-77
2023/08/30 07:55:41;;;;;;;21.20;10.87;;;;;;;13.21;100.00;96725.44;5092424;28;20437;-77
2023/08/30 07:58:10;;;;;;;18.63;9.43;;;;;;;13.29;100.00;96717.63;5091102;28;20390;-76
2023/08/30 08:00:36;;;;;;;14.23;8.35;;;;;;;13.39;100.00;96722.81;5092005;28;20401;-77
2023/08/30 08:03:04;;;;;;;16.13;8.25;;;;;;;13.49;100.00;96722.69;5096919;28;20437;-79
2023/08/30 08:05:30;;;;;;;14.05;6.93;;;;;;;13.58;100.00;96720.19;5073964;28;20426;-77
2023/08/30 08:08:01;;;;;;;17.45;9.88;;;;;;;13.62;100.00;96729.16;5089546;28;20482;-78
2023/08/30 08:10:28;;;;;;;27.60;13.07;;;;;;;13.60;100.00;96723.34;5085080;28;20719;-78
2023/08/30 08:12:54;;;;;;;36.60;13.75;;;;;;;13.64;100.00;96724.34;5076202;28;20413;-79
2023/08/30 08:15:21;;;;;;;24.20;11.45;;;;;;;13.69;100.00;96720.81;5084115;28;20394;-80
2023/08/30 08:17:49;;;;;;;21.25;10.45;;;;;;;13.76;100.00;96722.06;5047149;28;20403;-77
2023/08/30 08:20:17;;;;;;;13.13;7.85;;;;;;;13.85;100.00;96723.00;5093797;28;20906;-79
2023/08/30 08:22:43;;;;;;;17.75;9.90;;;;;;;13.89;100.00;96720.56;5080762;28;20415;-78
2023/08/30 08:25:09;;;;;;;31.00;16.80;;;;;;;13.62;100.00;96721.19;5073030;28;20743;-78
2023/08/30 08:27:36;;;;;;;23.38;12.27;;;;;;;13.83;100.00;96719.06;5079309;28;20401;-79
2023/08/30 08:30:04;;;;;;;18.50;10.68;;;;;;;13.93;100.00;96722.34;5095148;28;20394;-78
2023/08/30 08:32:31;;;;;;;20.25;10.90;;;;;;;14.00;100.00;96719.31;5083846;28;20419;-78
2023/08/30 08:34:57;;;;;;;22.25;11.00;;;;;;;14.08;100.00;96721.34;5087021;28;20404;-77
2023/08/30 08:37:25;;;;;;;27.10;14.18;;;;;;;13.77;100.00;96715.66;5093384;28;20409;-77
2023/08/30 08:39:51;;;;;;;22.83;12.48;;;;;;;14.05;100.00;96710.50;5090693;28;20483;-77
2023/08/30 08:42:19;;;;;;;18.73;10.65;;;;;;;14.24;100.00;96714.69;5092325;28;20402;-77
2023/08/30 08:44:50;;;;;;;14.15;8.38;;;;;;;14.43;100.00;96712.03;5096008;28;20412;-77
2023/08/30 08:47:18;;;;;;;13.07;8.93;;;;;;;14.60;100.00;96711.47;5097543;28;20394;-79
2023/08/30 08:49:45;;;;;;;14.83;8.87;;;;;;;14.48;100.00;96711.94;5099988;28;20524;-80
2023/08/30 08:52:13;;;;;;;15.88;10.05;;;;;;;14.50;100.00;96714.31;5099945;28;20397;-80
2023/08/30 08:54:41;;;;;;;15.23;9.90;;;;;;;14.44;100.00;96710.94;5091683;28;20386;-80
2023/08/30 08:57:08;;;;;;;12.38;8.90;;;;;;;14.55;100.00;96716.91;5098181;28;20492;-77
2023/08/30 08:59:34;;;;;;;10.48;8.20;;;;;;;14.80;100.00;96715.66;5090931;28;20394;-80
2023/08/30 09:02:01;;;;;;;13.27;9.40;;;;;;;14.73;100.00;96708.06;5091307;28;20479;-79
2023/08/30 09:04:30;;;;;;;12.63;8.30;;;;;;;14.88;100.00;96712.31;5078486;28;20762;-78
2023/08/30 09:06:58;;;;;;;10.43;7.30;;;;;;;14.97;100.00;96715.88;5077591;28;20406;-79
2023/08/30 09:09:25;;;;;;;9.95;7.35;;;;;;;15.03;100.00;96707.50;5078084;28;20874;-79
2023/08/30 09:11:53;;;;;;;11.70;6.78;;;;;;;15.06;100.00;96711.44;5076287;28;20397;-78
2023/08/30 09:14:20;;;;;;;10.15;6.60;;;;;;;15.22;100.00;96709.25;5094983;28;20878;-77
2023/08/30 09:16:55;;;;;;;7.20;5.50;;;;;;;15.45;100.00;96709.06;5095284;28;20798;-78
2023/08/30 09:19:22;;;;;;;5.53;4.93;;;;;;;15.72;100.00;96713.56;5094071;28;20402;-78
2023/08/30 09:21:53;;;;;;;6.78;4.95;;;;;;;15.81;100.00;96716.31;5095259;28;20402;-78
2023/08/30 09:24:19;;;;;;;4.82;4.40;;;;;;;15.99;100.00;96719.94;5096413;28;20759;-78
2023/08/30 09:26:49;;;;;;;4.77;4.27;;;;;;;16.16;100.00;96715.50;5095117;28;20477;-78
2023/08/30 09:29:18;;;;;;;3.60;3.30;;;;;;;16.24;100.00;96709.44;5095591;28;20404;-78
2023/08/30 09:31:44;;;;;;;3.00;2.70;;;;;;;16.30;100.00;96712.03;5094886;28;20752;-78
2023/08/30 09:34:11;;;;;;;5.45;3.67;;;;;;;16.32;100.00;96709.81;5094909;28;20406;-78
2023/08/30 09:36:40;;;;;;;6.20;4.03;;;;;;;16.21;100.00;96703.94;5095854;28;20880;-77
2023/08/30 09:39:09;;;;;;;4.85;4.30;;;;;;;16.19;100.00;96706.13;5095791;28;20497;-78
2023/08/30 09:41:35;;;;;;;4.30;3.72;;;;;;;16.30;100.00;96712.03;5095188;28;20397;-81
2023/08/30 09:44:07;;;;;;;7.78;4.38;;;;;;;16.24;100.00;96704.09;5096696;28;20410;-79
2023/08/30 09:46:41;;;;;;;8.53;4.10;;;;;;;16.18;100.00;96699.97;5092841;28;20396;-77
2023/08/30 09:49:09;;;;;;;8.13;4.35;;;;;;;16.18;100.00;96704.53;5074835;28;20437;-78
2023/08/30 09:51:38;;;;;;;4.40;3.57;;;;;;;16.35;100.00;96702.00;5075999;28;20395;-79
2023/08/30 09:54:07;;;;;;;3.97;3.38;;;;;;;16.60;100.00;96706.75;5063855;28;20432;-77
2023/08/30 09:56:36;;;;;;;3.20;2.65;;;;;;;16.83;100.00;96704.03;5095293;28;20408;-79
2023/08/30 09:59:03;;;;;;;3.30;3.00;;;;;;;16.90;100.00;96705.19;5096916;28;20470;-79
2023/08/30 10:01:30;;;;;;;4.88;2.88;;;;;;;17.04;100.00;96707.75;5097021;28;20772;-79
2023/08/30 10:03:58;;;;;;;2.67;2.47;;;;;;;17.29;100.00;96695.56;5098394;28;20475;-79
2023/08/30 10:06:25;;;;;;;2.30;2.10;;;;;;;17.45;100.00;96695.91;5098020;28;20792;-79
2023/08/30 10:08:54;;;;;;;3.00;2.67;;;;;;;17.54;100.00;96688.69;5096589;28;20476;-79
2023/08/30 10:11:21;;;;;;;4.63;3.25;;;;;;;17.22;100.00;96696.00;5096634;28;20822;-77
2023/08/30 10:13:48;;;;;;;3.95;3.35;;;;;;;17.24;100.00;96691.13;5097109;28;20390;-79
2023/08/30 10:16:22;;;;;;;7.00;3.38;;;;;;;17.53;100.00;96679.88;5096319;28;20412;-78
2023/08/30 10:18:52;;;;;;;4.40;2.85;;;;;;;17.77;100.00;96676.78;5095475;28;20433;-80
2023/08/30 10:21:21;;;;;;;5.47;2.70;;;;;;;17.94;100.00;96674.13;5095670;28;20951;-79
2023/08/30 10:23:51;;;;;;;3.92;2.25;;;;;;;18.11;100.00;96662.63;5077603;28;20410;-79
2023/08/30 10:26:18;;;;;;;2.20;2.00;;;;;;;18.23;100.00;96670.78;5097473;28;20413;-79
2023/08/30 10:28:46;;;;;;;2.17;1.92;;;;;;;18.29;100.00;96661.47;5083196;28;20430;-79
2023/08/30 10:31:14;;;;;;;3.60;2.70;;;;;;;18.16;100.00;96659.75;5075641;28;20889;-79
2023/08/30 10:33:49;;;;;;;2.70;2.50;;;;;;;18.27;100.00;96660.22;5076475;28;20403;-79
2023/08/30 10:36:23;;;;;;;2.60;2.40;;;;;;;18.41;100.00;96652.78;5093342;28;20420;-79
2023/08/30 10:38:50;;;;;;;3.15;2.40;;;;;;;18.46;100.00;96661.44;5075486;28;20400;-78
2023/08/30 10:41:22;;;;;;;3.47;2.95;;;;;;;18.41;100.00;96655.47;5076219;28;20400;-79
2023/08/30 10:43:52;;;;;;;6.00;3.30;;;;;;;18.55;100.00;96661.44;5075944;28;20506;-80
2023/08/30 10:46:30;;;;;;;3.45;3.00;;;;;;;18.61;100.00;96654.81;5077524;28;20659;-80
2023/08/30 10:49:09;;;;;;;5.95;3.45;;;;;;;18.42;100.00;96655.13;5076344;28;20403;-79
2023/08/30 10:51:38;;;;;;;5.55;3.33;;;;;;;18.12;100.00;96656.13;5075676;28;20396;-80
2023/08/30 10:54:12;;;;;;;3.53;2.92;;;;;;;18.37;100.00;96655.31;5076052;28;20424;-80
2023/08/30 10:56:48;;;;;;;2.83;2.60;;;;;;;18.50;100.00;96650.84;5075669;28;20909;-79
2023/08/30 10:59:18;;;;;;;3.78;2.55;;;;;;;18.44;100.00;96655.59;5094118;28;20402;-79
2023/08/30 11:01:45;;;;;;;5.25;3.47;;;;;;;18.23;100.00;96646.66;5097228;28;20424;-81
2023/08/30 11:04:12;;;;;;;4.43;2.93;;;;;;;18.37;100.00;96647.28;5095276;28;20780;-79
2023/08/30 11:06:42;;;;;;;5.03;3.20;;;;;;;18.53;100.00;96647.56;5094999;28;20463;-78
2023/08/30 11:09:08;;;;;;;3.60;2.80;;;;;;;18.29;100.00;96641.94;5093988;28;20394;-80
2023/08/30 11:11:36;;;;;;;4.00;3.60;;;;;;;18.49;100.00;96643.94;5095397;28;20398;-78
2023/08/30 11:14:08;;;;;;;4.93;3.15;;;;;;;18.55;100.00;96642.66;5086426;28;20399;-76